sensor_id;sensor_type;location;lat;lon;timestamp;P1;durP1;ratioP1;P2;durP2;ratioP2
16137;SDS011;8174;43.550;5.206;2022-09-27T00:01:23;2.97;;;2.20;;
16137;SDS011;8174;43.550;5.206;2022-09-27T00:03:51;4.87;;;2.10;;
16137;SDS011;8174;43.550;5.206;2022-09-27T00:06:23;5.43;;;2.00;;
16137;SDS011;8174;43.550;5.206;2022-09-27T00:08:50;5.73;;;2.30;;
16137;SDS011;8174;43.550;5.206;2022-09-27T00:11:19;3.30;;;2.57;;
16137;SDS011;8174;43.550;5.206;2022-09-27T00:13:49;4.20;;;2.10;;
16137;SDS011;8174;43.550;5.206;2022-09-27T00:16:18;2.50;;;2.10;;
16137;SDS011;8174;43.550;5.206;2022-09-27T00:19:00;6.83;;;2.57;;
16137;SDS011;8174;43.550;5.206;2022-09-27T00:21:29;4.83;;;2.30;;
16137;SDS011;8174;43.550;5.206;2022-09-27T00:23:56;4.93;;;2.40;;
16137;SDS011;8174;43.550;5.206;2022-09-27T00:26:25;7.07;;;2.40;;
16137;SDS011;8174;43.550;5.206;2022-09-27T00:28:53;5.87;;;2.83;;
16137;SDS011;8174;43.550;5.206;2022-09-27T00:31:26;2.97;;;2.50;;
16137;SDS011;8174;43.550;5.206;2022-09-27T00:33:55;5.03;;;2.53;;
16137;SDS011;8174;43.550;5.206;2022-09-27T00:36:26;4.00;;;2.70;;
16137;SDS011;8174;43.550;5.206;2022-09-27T00:38:54;3.13;;;2.50;;
16137;SDS011;8174;43.550;5.206;2022-09-27T00:41:24;3.70;;;2.30;;
16137;SDS011;8174;43.550;5.206;2022-09-27T00:43:52;4.80;;;2.20;;
16137;SDS011;8174;43.550;5.206;2022-09-27T00:46:24;3.20;;;2.20;;
16137;SDS011;8174;43.550;5.206;2022-09-27T00:48:57;4.43;;;2.23;;
16137;SDS011;8174;43.550;5.206;2022-09-27T00:51:26;4.83;;;2.20;;
16137;SDS011;8174;43.550;5.206;2022-09-27T00:53:54;4.27;;;2.20;;
16137;SDS011;8174;43.550;5.206;2022-09-27T00:56:24;2.87;;;2.03;;
16137;SDS011;8174;43.550;5.206;2022-09-27T00:58:54;3.87;;;2.13;;
16137;SDS011;8174;43.550;5.206;2022-09-27T01:01:24;3.43;;;2.03;;
16137;SDS011;8174;43.550;5.206;2022-09-27T01:03:56;4.20;;;2.20;;
16137;SDS011;8174;43.550;5.206;2022-09-27T01:06:25;2.27;;;1.87;;
16137;SDS011;8174;43.550;5.206;2022-09-27T01:08:53;3.37;;;2.00;;
16137;SDS011;8174;43.550;5.206;2022-09-27T01:11:24;2.40;;;1.83;;
16137;SDS011;8174;43.550;5.206;2022-09-27T01:14:17;2.93;;;1.80;;
16137;SDS011;8174;43.550;5.206;2022-09-27T01:16:49;3.20;;;1.80;;
16137;SDS011;8174;43.550;5.206;2022-09-27T01:19:26;3.40;;;1.87;;
16137;SDS011;8174;43.550;5.206;2022-09-27T01:21:58;2.50;;;1.73;;
16137;SDS011;8174;43.550;5.206;2022-09-27T01:30:11;3.10;;;1.70;;
16137;SDS011;8174;43.550;5.206;2022-09-27T01:32:41;1.70;;;1.50;;
16137;SDS011;8174;43.550;5.206;2022-09-27T01:35:23;4.40;;;1.87;;
16137;SDS011;8174;43.550;5.206;2022-09-27T01:37:54;2.77;;;1.77;;
16137;SDS011;8174;43.550;5.206;2022-09-27T01:40:26;2.43;;;1.60;;
16137;SDS011;8174;43.550;5.206;2022-09-27T01:42:56;2.83;;;1.67;;
16137;SDS011;8174;43.550;5.206;2022-09-27T01:45:28;4.80;;;1.80;;
16137;SDS011;8174;43.550;5.206;2022-09-27T01:47:57;3.80;;;1.77;;
16137;SDS011;8174;43.550;5.206;2022-09-27T01:50:27;4.28;;;1.50;;
16137;SDS011;8174;43.550;5.206;2022-09-27T01:52:58;4.07;;;1.67;;
16137;SDS011;8174;43.550;5.206;2022-09-27T01:55:27;3.60;;;1.38;;
16137;SDS011;8174;43.550;5.206;2022-09-27T01:57:57;3.57;;;1.50;;
16137;SDS011;8174;43.550;5.206;2022-09-27T02:00:27;3.50;;;1.43;;
16137;SDS011;8174;43.550;5.206;2022-09-27T02:02:59;1.43;;;1.30;;
16137;SDS011;8174;43.550;5.206;2022-09-27T02:05:29;4.43;;;1.60;;
16137;SDS011;8174;43.550;5.206;2022-09-27T02:08:02;2.77;;;1.53;;
16137;SDS011;8174;43.550;5.206;2022-09-27T02:10:33;2.33;;;1.37;;
16137;SDS011;8174;43.550;5.206;2022-09-27T02:13:04;3.73;;;1.47;;
16137;SDS011;8174;43.550;5.206;2022-09-27T02:15:36;2.87;;;1.67;;
16137;SDS011;8174;43.550;5.206;2022-09-27T02:18:09;2.50;;;1.30;;
16137;SDS011;8174;43.550;5.206;2022-09-27T02:20:40;2.90;;;1.60;;
16137;SDS011;8174;43.550;5.206;2022-09-27T02:23:13;4.13;;;1.50;;
16137;SDS011;8174;43.550;5.206;2022-09-27T02:25:42;2.93;;;1.40;;
16137;SDS011;8174;43.550;5.206;2022-09-27T02:28:12;2.57;;;1.40;;
16137;SDS011;8174;43.550;5.206;2022-09-27T02:30:47;2.90;;;1.30;;
16137;SDS011;8174;43.550;5.206;2022-09-27T02:33:15;3.93;;;1.60;;
16137;SDS011;8174;43.550;5.206;2022-09-27T02:35:44;2.23;;;1.50;;
16137;SDS011;8174;43.550;5.206;2022-09-27T02:38:12;2.78;;;1.65;;
16137;SDS011;8174;43.550;5.206;2022-09-27T02:40:41;3.55;;;1.70;;
16137;SDS011;8174;43.550;5.206;2022-09-27T02:43:09;2.15;;;1.50;;
16137;SDS011;8174;43.550;5.206;2022-09-27T02:45:40;3.65;;;1.45;;
16137;SDS011;8174;43.550;5.206;2022-09-27T02:48:16;3.53;;;1.55;;
16137;SDS011;8174;43.550;5.206;2022-09-27T02:53:35;4.23;;;1.50;;
16137;SDS011;8174;43.550;5.206;2022-09-27T02:56:07;2.83;;;1.50;;
16137;SDS011;8174;43.550;5.206;2022-09-27T02:58:38;2.67;;;1.40;;
16137;SDS011;8174;43.550;5.206;2022-09-27T03:01:11;4.03;;;1.50;;
16137;SDS011;8174;43.550;5.206;2022-09-27T03:03:41;3.75;;;1.42;;
16137;SDS011;8174;43.550;5.206;2022-09-27T03:06:12;3.10;;;1.50;;
16137;SDS011;8174;43.550;5.206;2022-09-27T03:08:40;3.75;;;1.50;;
16137;SDS011;8174;43.550;5.206;2022-09-27T03:11:07;3.47;;;1.48;;
16137;SDS011;8174;43.550;5.206;2022-09-27T03:13:35;2.55;;;1.40;;
16137;SDS011;8174;43.550;5.206;2022-09-27T03:16:04;4.22;;;1.50;;
16137;SDS011;8174;43.550;5.206;2022-09-27T03:18:32;5.40;;;1.60;;
16137;SDS011;8174;43.550;5.206;2022-09-27T03:21:01;1.83;;;1.33;;
16137;SDS011;8174;43.550;5.206;2022-09-27T03:23:28;3.27;;;1.40;;
16137;SDS011;8174;43.550;5.206;2022-09-27T03:25:56;2.00;;;1.50;;
16137;SDS011;8174;43.550;5.206;2022-09-27T03:28:24;3.47;;;1.60;;
16137;SDS011;8174;43.550;5.206;2022-09-27T03:30:54;8.90;;;2.00;;
16137;SDS011;8174;43.550;5.206;2022-09-27T03:33:21;3.87;;;1.70;;
16137;SDS011;8174;43.550;5.206;2022-09-27T03:35:49;3.80;;;1.67;;
16137;SDS011;8174;43.550;5.206;2022-09-27T03:38:18;7.17;;;3.60;;
16137;SDS011;8174;43.550;5.206;2022-09-27T03:40:45;4.57;;;2.80;;
16137;SDS011;8174;43.550;5.206;2022-09-27T03:43:13;5.40;;;2.40;;
16137;SDS011;8174;43.550;5.206;2022-09-27T03:45:41;4.83;;;2.17;;
16137;SDS011;8174;43.550;5.206;2022-09-27T03:48:10;5.00;;;2.13;;
16137;SDS011;8174;43.550;5.206;2022-09-27T03:50:37;4.07;;;2.00;;
16137;SDS011;8174;43.550;5.206;2022-09-27T03:53:05;3.57;;;1.80;;
16137;SDS011;8174;43.550;5.206;2022-09-27T03:55:34;3.57;;;2.00;;
16137;SDS011;8174;43.550;5.206;2022-09-27T03:58:02;2.97;;;1.97;;
16137;SDS011;8174;43.550;5.206;2022-09-27T04:00:30;4.80;;;1.90;;
16137;SDS011;8174;43.550;5.206;2022-09-27T04:02:57;4.40;;;2.00;;
16137;SDS011;8174;43.550;5.206;2022-09-27T04:05:25;4.93;;;2.40;;
16137;SDS011;8174;43.550;5.206;2022-09-27T04:07:53;3.87;;;2.10;;
16137;SDS011;8174;43.550;5.206;2022-09-27T04:10:21;5.40;;;2.10;;
16137;SDS011;8174;43.550;5.206;2022-09-27T04:12:50;5.13;;;1.97;;
16137;SDS011;8174;43.550;5.206;2022-09-27T04:15:18;3.13;;;2.00;;
16137;SDS011;8174;43.550;5.206;2022-09-27T04:17:45;4.87;;;1.90;;
16137;SDS011;8174;43.550;5.206;2022-09-27T04:20:13;7.13;;;2.00;;
16137;SDS011;8174;43.550;5.206;2022-09-27T04:22:41;3.87;;;1.70;;
16137;SDS011;8174;43.550;5.206;2022-09-27T04:25:09;8.27;;;2.13;;
16137;SDS011;8174;43.550;5.206;2022-09-27T04:27:37;4.83;;;1.80;;
16137;SDS011;8174;43.550;5.206;2022-09-27T04:30:09;3.37;;;1.90;;
16137;SDS011;8174;43.550;5.206;2022-09-27T04:32:39;2.77;;;2.00;;
16137;SDS011;8174;43.550;5.206;2022-09-27T04:35:07;5.53;;;2.10;;
16137;SDS011;8174;43.550;5.206;2022-09-27T04:37:52;9.00;;;2.00;;
16137;SDS011;8174;43.550;5.206;2022-09-27T04:40:19;4.90;;;2.13;;
16137;SDS011;8174;43.550;5.206;2022-09-27T04:42:47;5.40;;;2.10;;
16137;SDS011;8174;43.550;5.206;2022-09-27T04:45:16;3.70;;;1.80;;
16137;SDS011;8174;43.550;5.206;2022-09-27T04:47:44;5.67;;;2.27;;
16137;SDS011;8174;43.550;5.206;2022-09-27T04:50:12;5.47;;;2.17;;
16137;SDS011;8174;43.550;5.206;2022-09-27T04:52:39;5.60;;;2.20;;
16137;SDS011;8174;43.550;5.206;2022-09-27T04:55:08;4.03;;;1.80;;
16137;SDS011;8174;43.550;5.206;2022-09-27T04:57:35;4.63;;;2.20;;
16137;SDS011;8174;43.550;5.206;2022-09-27T05:00:03;4.80;;;1.87;;
16137;SDS011;8174;43.550;5.206;2022-09-27T05:02:32;7.13;;;2.33;;
16137;SDS011;8174;43.550;5.206;2022-09-27T05:05:00;9.27;;;2.50;;
16137;SDS011;8174;43.550;5.206;2022-09-27T05:07:27;8.90;;;2.23;;
16137;SDS011;8174;43.550;5.206;2022-09-27T05:09:55;5.30;;;1.70;;
16137;SDS011;8174;43.550;5.206;2022-09-27T05:12:22;4.87;;;2.00;;
16137;SDS011;8174;43.550;5.206;2022-09-27T05:14:51;5.53;;;2.13;;
16137;SDS011;8174;43.550;5.206;2022-09-27T05:17:19;7.47;;;2.10;;
16137;SDS011;8174;43.550;5.206;2022-09-27T05:19:49;9.90;;;2.10;;
16137;SDS011;8174;43.550;5.206;2022-09-27T05:22:16;4.97;;;2.10;;
16137;SDS011;8174;43.550;5.206;2022-09-27T05:24:44;5.90;;;2.00;;
16137;SDS011;8174;43.550;5.206;2022-09-27T05:27:12;5.27;;;2.00;;
16137;SDS011;8174;43.550;5.206;2022-09-27T05:29:43;4.53;;;2.57;;
16137;SDS011;8174;43.550;5.206;2022-09-27T05:32:11;4.63;;;2.50;;
16137;SDS011;8174;43.550;5.206;2022-09-27T05:34:39;6.30;;;2.80;;
16137;SDS011;8174;43.550;5.206;2022-09-27T05:37:08;6.97;;;3.30;;
16137;SDS011;8174;43.550;5.206;2022-09-27T05:39:36;6.23;;;3.50;;
16137;SDS011;8174;43.550;5.206;2022-09-27T05:42:03;9.63;;;4.30;;
16137;SDS011;8174;43.550;5.206;2022-09-27T05:44:34;7.33;;;3.80;;
16137;SDS011;8174;43.550;5.206;2022-09-27T05:47:03;4.83;;;4.07;;
16137;SDS011;8174;43.550;5.206;2022-09-27T05:49:30;10.33;;;3.97;;
16137;SDS011;8174;43.550;5.206;2022-09-27T05:51:58;8.10;;;3.80;;
16137;SDS011;8174;43.550;5.206;2022-09-27T05:54:27;11.37;;;4.70;;
16137;SDS011;8174;43.550;5.206;2022-09-27T05:56:55;5.20;;;3.70;;
16137;SDS011;8174;43.550;5.206;2022-09-27T05:59:23;7.30;;;3.77;;
16137;SDS011;8174;43.550;5.206;2022-09-27T06:01:51;9.23;;;4.73;;
16137;SDS011;8174;43.550;5.206;2022-09-27T06:04:19;7.27;;;4.20;;
16137;SDS011;8174;43.550;5.206;2022-09-27T06:06:47;5.80;;;3.33;;
16137;SDS011;8174;43.550;5.206;2022-09-27T06:09:15;4.90;;;3.10;;
16137;SDS011;8174;43.550;5.206;2022-09-27T06:11:44;7.07;;;2.80;;
16137;SDS011;8174;43.550;5.206;2022-09-27T06:14:12;4.97;;;2.83;;
16137;SDS011;8174;43.550;5.206;2022-09-27T06:16:40;5.90;;;3.20;;
16137;SDS011;8174;43.550;5.206;2022-09-27T06:19:08;7.00;;;2.43;;
16137;SDS011;8174;43.550;5.206;2022-09-27T06:21:35;5.97;;;2.50;;
16137;SDS011;8174;43.550;5.206;2022-09-27T06:24:03;8.80;;;2.40;;
16137;SDS011;8174;43.550;5.206;2022-09-27T06:26:31;7.50;;;2.63;;
16137;SDS011;8174;43.550;5.206;2022-09-27T06:29:00;10.63;;;4.90;;
16137;SDS011;8174;43.550;5.206;2022-09-27T06:31:28;10.27;;;6.50;;
16137;SDS011;8174;43.550;5.206;2022-09-27T06:33:56;3.70;;;2.03;;
16137;SDS011;8174;43.550;5.206;2022-09-27T06:36:23;4.60;;;2.60;;
16137;SDS011;8174;43.550;5.206;2022-09-27T06:38:51;3.50;;;2.10;;
16137;SDS011;8174;43.550;5.206;2022-09-27T06:41:19;4.67;;;1.73;;
16137;SDS011;8174;43.550;5.206;2022-09-27T06:43:47;5.53;;;1.97;;
16137;SDS011;8174;43.550;5.206;2022-09-27T06:46:16;10.77;;;5.47;;
16137;SDS011;8174;43.550;5.206;2022-09-27T06:48:43;4.57;;;2.17;;
16137;SDS011;8174;43.550;5.206;2022-09-27T06:51:12;8.60;;;5.30;;
16137;SDS011;8174;43.550;5.206;2022-09-27T06:53:40;6.80;;;4.17;;
16137;SDS011;8174;43.550;5.206;2022-09-27T06:56:07;6.90;;;4.10;;
16137;SDS011;8174;43.550;5.206;2022-09-27T06:58:35;4.93;;;2.10;;
16137;SDS011;8174;43.550;5.206;2022-09-27T07:01:20;6.07;;;2.20;;
16137;SDS011;8174;43.550;5.206;2022-09-27T07:03:48;4.03;;;2.33;;
16137;SDS011;8174;43.550;5.206;2022-09-27T07:06:17;5.57;;;2.83;;
16137;SDS011;8174;43.550;5.206;2022-09-27T07:08:48;7.20;;;3.80;;
16137;SDS011;8174;43.550;5.206;2022-09-27T07:11:16;6.33;;;2.77;;
16137;SDS011;8174;43.550;5.206;2022-09-27T07:13:44;5.50;;;2.83;;
16137;SDS011;8174;43.550;5.206;2022-09-27T07:16:11;7.63;;;2.20;;
16137;SDS011;8174;43.550;5.206;2022-09-27T07:18:40;5.33;;;2.53;;
16137;SDS011;8174;43.550;5.206;2022-09-27T07:21:08;7.03;;;2.33;;
16137;SDS011;8174;43.550;5.206;2022-09-27T07:23:36;7.60;;;3.80;;
16137;SDS011;8174;43.550;5.206;2022-09-27T07:26:04;3.43;;;2.00;;
16137;SDS011;8174;43.550;5.206;2022-09-27T07:28:33;5.60;;;3.63;;
16137;SDS011;8174;43.550;5.206;2022-09-27T07:31:01;4.37;;;2.17;;
16137;SDS011;8174;43.550;5.206;2022-09-27T07:33:29;6.43;;;2.10;;
16137;SDS011;8174;43.550;5.206;2022-09-27T07:35:58;4.43;;;1.80;;
16137;SDS011;8174;43.550;5.206;2022-09-27T07:38:26;7.67;;;2.87;;
16137;SDS011;8174;43.550;5.206;2022-09-27T07:40:53;5.80;;;2.47;;
16137;SDS011;8174;43.550;5.206;2022-09-27T07:43:21;4.43;;;1.60;;
16137;SDS011;8174;43.550;5.206;2022-09-27T07:45:49;4.10;;;1.65;;
16137;SDS011;8174;43.550;5.206;2022-09-27T07:48:16;5.57;;;2.70;;
16137;SDS011;8174;43.550;5.206;2022-09-27T07:50:44;5.53;;;2.00;;
16137;SDS011;8174;43.550;5.206;2022-09-27T07:53:13;6.43;;;1.95;;
16137;SDS011;8174;43.550;5.206;2022-09-27T07:55:41;11.73;;;4.73;;
16137;SDS011;8174;43.550;5.206;2022-09-27T07:58:09;2.93;;;1.40;;
16137;SDS011;8174;43.550;5.206;2022-09-27T08:00:37;3.45;;;1.60;;
16137;SDS011;8174;43.550;5.206;2022-09-27T08:03:05;6.78;;;1.80;;
16137;SDS011;8174;43.550;5.206;2022-09-27T08:05:33;10.10;;;5.35;;
16137;SDS011;8174;43.550;5.206;2022-09-27T08:08:01;9.00;;;2.58;;
16137;SDS011;8174;43.550;5.206;2022-09-27T08:10:31;4.28;;;2.03;;
16137;SDS011;8174;43.550;5.206;2022-09-27T08:12:59;7.63;;;1.97;;
16137;SDS011;8174;43.550;5.206;2022-09-27T08:15:28;5.07;;;1.73;;
16137;SDS011;8174;43.550;5.206;2022-09-27T08:17:56;4.57;;;1.48;;
16137;SDS011;8174;43.550;5.206;2022-09-27T08:20:23;5.57;;;1.45;;
16137;SDS011;8174;43.550;5.206;2022-09-27T08:22:51;8.05;;;1.85;;
16137;SDS011;8174;43.550;5.206;2022-09-27T08:25:19;4.57;;;1.63;;
16137;SDS011;8174;43.550;5.206;2022-09-27T08:27:55;11.43;;;2.05;;
16137;SDS011;8174;43.550;5.206;2022-09-27T08:30:22;4.75;;;1.58;;
16137;SDS011;8174;43.550;5.206;2022-09-27T08:32:53;4.45;;;1.85;;
16137;SDS011;8174;43.550;5.206;2022-09-27T08:35:21;6.88;;;1.60;;
16137;SDS011;8174;43.550;5.206;2022-09-27T08:37:52;6.05;;;2.08;;
16137;SDS011;8174;43.550;5.206;2022-09-27T08:40:20;8.15;;;1.55;;
16137;SDS011;8174;43.550;5.206;2022-09-27T08:42:50;2.50;;;1.20;;
16137;SDS011;8174;43.550;5.206;2022-09-27T08:45:25;6.10;;;1.40;;
16137;SDS011;8174;43.550;5.206;2022-09-27T08:47:55;7.13;;;1.85;;
16137;SDS011;8174;43.550;5.206;2022-09-27T08:50:26;6.87;;;1.40;;
16137;SDS011;8174;43.550;5.206;2022-09-27T08:52:55;1.92;;;1.10;;
16137;SDS011;8174;43.550;5.206;2022-09-27T08:55:25;8.32;;;1.77;;
16137;SDS011;8174;43.550;5.206;2022-09-27T08:57:55;6.63;;;1.85;;
16137;SDS011;8174;43.550;5.206;2022-09-27T09:00:24;5.70;;;1.20;;
16137;SDS011;8174;43.550;5.206;2022-09-27T09:02:54;6.50;;;1.52;;
16137;SDS011;8174;43.550;5.206;2022-09-27T09:05:24;2.35;;;1.20;;
16137;SDS011;8174;43.550;5.206;2022-09-27T09:07:57;6.50;;;1.20;;
16137;SDS011;8174;43.550;5.206;2022-09-27T09:10:29;4.50;;;1.27;;
16137;SDS011;8174;43.550;5.206;2022-09-27T09:13:15;2.88;;;1.23;;
16137;SDS011;8174;43.550;5.206;2022-09-27T09:15:48;5.00;;;1.27;;
16137;SDS011;8174;43.550;5.206;2022-09-27T09:18:26;2.38;;;1.55;;
16137;SDS011;8174;43.550;5.206;2022-09-27T09:20:57;3.80;;;1.40;;
16137;SDS011;8174;43.550;5.206;2022-09-27T09:23:35;5.25;;;1.45;;
16137;SDS011;8174;43.550;5.206;2022-09-27T09:26:08;6.03;;;1.40;;
16137;SDS011;8174;43.550;5.206;2022-09-27T09:28:42;5.47;;;1.38;;
16137;SDS011;8174;43.550;5.206;2022-09-27T09:31:14;5.32;;;1.40;;
16137;SDS011;8174;43.550;5.206;2022-09-27T09:33:45;5.68;;;1.70;;
16137;SDS011;8174;43.550;5.206;2022-09-27T09:36:17;5.15;;;1.45;;
16137;SDS011;8174;43.550;5.206;2022-09-27T09:38:47;3.35;;;1.20;;
16137;SDS011;8174;43.550;5.206;2022-09-27T09:41:17;3.72;;;1.20;;
16137;SDS011;8174;43.550;5.206;2022-09-27T09:43:49;5.65;;;1.30;;
16137;SDS011;8174;43.550;5.206;2022-09-27T09:46:20;3.97;;;1.10;;
16137;SDS011;8174;43.550;5.206;2022-09-27T09:48:50;3.88;;;1.40;;
16137;SDS011;8174;43.550;5.206;2022-09-27T09:51:21;4.88;;;1.50;;
16137;SDS011;8174;43.550;5.206;2022-09-27T09:53:52;4.93;;;1.48;;
16137;SDS011;8174;43.550;5.206;2022-09-27T09:56:22;6.53;;;1.40;;
16137;SDS011;8174;43.550;5.206;2022-09-27T09:58:52;3.75;;;1.27;;
16137;SDS011;8174;43.550;5.206;2022-09-27T10:01:22;4.50;;;1.20;;
16137;SDS011;8174;43.550;5.206;2022-09-27T10:03:51;5.35;;;1.25;;
16137;SDS011;8174;43.550;5.206;2022-09-27T10:06:20;4.05;;;1.08;;
16137;SDS011;8174;43.550;5.206;2022-09-27T10:08:48;5.57;;;1.15;;
16137;SDS011;8174;43.550;5.206;2022-09-27T10:11:21;2.95;;;1.00;;
16137;SDS011;8174;43.550;5.206;2022-09-27T10:13:49;5.90;;;1.20;;
16137;SDS011;8174;43.550;5.206;2022-09-27T10:16:17;2.65;;;0.98;;
16137;SDS011;8174;43.550;5.206;2022-09-27T10:18:47;3.42;;;1.05;;
16137;SDS011;8174;43.550;5.206;2022-09-27T10:21:17;3.28;;;1.05;;
16137;SDS011;8174;43.550;5.206;2022-09-27T10:24:01;4.60;;;1.48;;
16137;SDS011;8174;43.550;5.206;2022-09-27T10:26:30;4.15;;;1.42;;
16137;SDS011;8174;43.550;5.206;2022-09-27T10:28:57;4.78;;;1.10;;
16137;SDS011;8174;43.550;5.206;2022-09-27T10:31:40;3.42;;;1.50;;
16137;SDS011;8174;43.550;5.206;2022-09-27T10:34:17;5.38;;;1.30;;
16137;SDS011;8174;43.550;5.206;2022-09-27T10:36:47;5.22;;;1.40;;
16137;SDS011;8174;43.550;5.206;2022-09-27T10:39:27;4.03;;;1.45;;
16137;SDS011;8174;43.550;5.206;2022-09-27T10:41:55;2.58;;;0.90;;
16137;SDS011;8174;43.550;5.206;2022-09-27T10:44:24;6.32;;;1.08;;
16137;SDS011;8174;43.550;5.206;2022-09-27T10:46:53;3.22;;;1.27;;
16137;SDS011;8174;43.550;5.206;2022-09-27T10:49:24;5.18;;;1.10;;
16137;SDS011;8174;43.550;5.206;2022-09-27T10:51:56;3.05;;;1.13;;
16137;SDS011;8174;43.550;5.206;2022-09-27T10:54:24;18.75;;;2.03;;
16137;SDS011;8174;43.550;5.206;2022-09-27T10:56:53;3.42;;;1.30;;
16137;SDS011;8174;43.550;5.206;2022-09-27T10:59:22;2.60;;;1.10;;
16137;SDS011;8174;43.550;5.206;2022-09-27T11:01:50;3.22;;;1.23;;
16137;SDS011;8174;43.550;5.206;2022-09-27T11:04:22;2.47;;;1.10;;
16137;SDS011;8174;43.550;5.206;2022-09-27T11:06:51;5.10;;;1.00;;
16137;SDS011;8174;43.550;5.206;2022-09-27T11:09:20;4.13;;;1.20;;
16137;SDS011;8174;43.550;5.206;2022-09-27T11:11:52;4.05;;;1.15;;
16137;SDS011;8174;43.550;5.206;2022-09-27T11:14:33;4.38;;;1.30;;
16137;SDS011;8174;43.550;5.206;2022-09-27T11:17:12;2.33;;;1.00;;
16137;SDS011;8174;43.550;5.206;2022-09-27T11:19:51;5.18;;;1.30;;
16137;SDS011;8174;43.550;5.206;2022-09-27T11:22:29;3.38;;;1.25;;
16137;SDS011;8174;43.550;5.206;2022-09-27T11:25:03;2.22;;;0.82;;
16137;SDS011;8174;43.550;5.206;2022-09-27T11:27:36;5.15;;;1.25;;
16137;SDS011;8174;43.550;5.206;2022-09-27T11:30:07;5.30;;;1.23;;
16137;SDS011;8174;43.550;5.206;2022-09-27T11:32:44;5.93;;;1.45;;
16137;SDS011;8174;43.550;5.206;2022-09-27T11:35:23;5.85;;;1.25;;
16137;SDS011;8174;43.550;5.206;2022-09-27T11:37:59;4.55;;;1.42;;
16137;SDS011;8174;43.550;5.206;2022-09-27T11:40:32;6.47;;;1.40;;
16137;SDS011;8174;43.550;5.206;2022-09-27T11:45:50;3.83;;;1.20;;
16137;SDS011;8174;43.550;5.206;2022-09-27T11:51:12;2.47;;;1.15;;
16137;SDS011;8174;43.550;5.206;2022-09-27T11:53:51;3.55;;;1.20;;
16137;SDS011;8174;43.550;5.206;2022-09-27T11:56:27;2.58;;;1.40;;
16137;SDS011;8174;43.550;5.206;2022-09-27T11:59:01;3.72;;;0.90;;
16137;SDS011;8174;43.550;5.206;2022-09-27T12:01:34;1.95;;;0.95;;
16137;SDS011;8174;43.550;5.206;2022-09-27T12:07:07;4.35;;;1.00;;
16137;SDS011;8174;43.550;5.206;2022-09-27T12:09:38;3.70;;;1.20;;
16137;SDS011;8174;43.550;5.206;2022-09-27T12:12:09;4.63;;;1.20;;
16137;SDS011;8174;43.550;5.206;2022-09-27T12:14:39;4.32;;;1.20;;
16137;SDS011;8174;43.550;5.206;2022-09-27T12:17:10;5.85;;;1.23;;
16137;SDS011;8174;43.550;5.206;2022-09-27T12:19:41;3.97;;;1.10;;
16137;SDS011;8174;43.550;5.206;2022-09-27T12:22:12;4.72;;;1.02;;
16137;SDS011;8174;43.550;5.206;2022-09-27T12:24:42;3.47;;;1.00;;
16137;SDS011;8174;43.550;5.206;2022-09-27T12:27:12;4.00;;;1.20;;
16137;SDS011;8174;43.550;5.206;2022-09-27T12:29:42;4.18;;;1.20;;
16137;SDS011;8174;43.550;5.206;2022-09-27T12:32:13;5.75;;;1.23;;
16137;SDS011;8174;43.550;5.206;2022-09-27T12:34:45;6.15;;;1.23;;
16137;SDS011;8174;43.550;5.206;2022-09-27T12:37:17;3.58;;;1.08;;
16137;SDS011;8174;43.550;5.206;2022-09-27T12:39:48;3.95;;;1.35;;
16137;SDS011;8174;43.550;5.206;2022-09-27T12:42:19;4.68;;;1.45;;
16137;SDS011;8174;43.550;5.206;2022-09-27T12:44:47;5.13;;;1.17;;
16137;SDS011;8174;43.550;5.206;2022-09-27T12:47:19;3.60;;;1.40;;
16137;SDS011;8174;43.550;5.206;2022-09-27T12:49:53;3.42;;;1.10;;
16137;SDS011;8174;43.550;5.206;2022-09-27T12:52:24;6.35;;;1.20;;
16137;SDS011;8174;43.550;5.206;2022-09-27T12:55:02;5.28;;;1.02;;
16137;SDS011;8174;43.550;5.206;2022-09-27T12:57:38;4.45;;;0.98;;
16137;SDS011;8174;43.550;5.206;2022-09-27T13:00:11;7.22;;;1.23;;
16137;SDS011;8174;43.550;5.206;2022-09-27T13:05:36;3.35;;;1.13;;
16137;SDS011;8174;43.550;5.206;2022-09-27T13:08:16;5.00;;;1.30;;
16137;SDS011;8174;43.550;5.206;2022-09-27T13:10:49;4.22;;;1.30;;
16137;SDS011;8174;43.550;5.206;2022-09-27T13:13:20;6.10;;;1.42;;
16137;SDS011;8174;43.550;5.206;2022-09-27T13:15:52;5.20;;;1.20;;
16137;SDS011;8174;43.550;5.206;2022-09-27T13:18:31;3.65;;;1.10;;
16137;SDS011;8174;43.550;5.206;2022-09-27T13:23:57;6.30;;;1.30;;
16137;SDS011;8174;43.550;5.206;2022-09-27T13:26:46;4.90;;;1.20;;
16137;SDS011;8174;43.550;5.206;2022-09-27T13:29:24;3.30;;;1.00;;
16137;SDS011;8174;43.550;5.206;2022-09-27T13:34:41;3.65;;;1.17;;
16137;SDS011;8174;43.550;5.206;2022-09-27T13:40:22;2.70;;;1.13;;
16137;SDS011;8174;43.550;5.206;2022-09-27T13:42:56;4.38;;;1.15;;
16137;SDS011;8174;43.550;5.206;2022-09-27T13:45:31;2.97;;;1.20;;
16137;SDS011;8174;43.550;5.206;2022-09-27T13:48:00;3.05;;;1.30;;
16137;SDS011;8174;43.550;5.206;2022-09-27T13:50:36;4.35;;;1.15;;
16137;SDS011;8174;43.550;5.206;2022-09-27T13:53:05;5.00;;;1.35;;
16137;SDS011;8174;43.550;5.206;2022-09-27T13:55:38;6.75;;;1.20;;
16137;SDS011;8174;43.550;5.206;2022-09-27T13:58:13;8.27;;;1.45;;
16137;SDS011;8174;43.550;5.206;2022-09-27T14:00:42;6.88;;;1.60;;
16137;SDS011;8174;43.550;5.206;2022-09-27T14:03:13;3.47;;;1.20;;
16137;SDS011;8174;43.550;5.206;2022-09-27T14:05:45;5.57;;;1.35;;
16137;SDS011;8174;43.550;5.206;2022-09-27T14:08:14;4.43;;;1.55;;
16137;SDS011;8174;43.550;5.206;2022-09-27T14:10:45;6.55;;;1.25;;
16137;SDS011;8174;43.550;5.206;2022-09-27T14:13:15;3.20;;;1.02;;
16137;SDS011;8174;43.550;5.206;2022-09-27T14:15:45;2.70;;;1.15;;
16137;SDS011;8174;43.550;5.206;2022-09-27T14:18:14;4.78;;;1.38;;
16137;SDS011;8174;43.550;5.206;2022-09-27T14:20:42;4.75;;;1.30;;
16137;SDS011;8174;43.550;5.206;2022-09-27T14:23:13;9.95;;;1.40;;
16137;SDS011;8174;43.550;5.206;2022-09-27T14:25:46;2.80;;;1.30;;
16137;SDS011;8174;43.550;5.206;2022-09-27T14:28:22;5.05;;;1.30;;
16137;SDS011;8174;43.550;5.206;2022-09-27T14:31:09;4.93;;;1.27;;
16137;SDS011;8174;43.550;5.206;2022-09-27T14:33:42;5.13;;;1.20;;
16137;SDS011;8174;43.550;5.206;2022-09-27T14:36:14;2.58;;;1.10;;
16137;SDS011;8174;43.550;5.206;2022-09-27T14:39:01;4.30;;;1.10;;
16137;SDS011;8174;43.550;5.206;2022-09-27T14:41:34;2.88;;;1.13;;
16137;SDS011;8174;43.550;5.206;2022-09-27T14:44:03;8.13;;;1.42;;
16137;SDS011;8174;43.550;5.206;2022-09-27T14:46:30;3.83;;;1.23;;
16137;SDS011;8174;43.550;5.206;2022-09-27T14:49:07;2.42;;;1.00;;
16137;SDS011;8174;43.550;5.206;2022-09-27T14:51:38;1.95;;;1.10;;
16137;SDS011;8174;43.550;5.206;2022-09-27T14:54:17;3.72;;;1.30;;
16137;SDS011;8174;43.550;5.206;2022-09-27T14:56:46;3.50;;;1.10;;
16137;SDS011;8174;43.550;5.206;2022-09-27T14:59:24;3.10;;;1.10;;
16137;SDS011;8174;43.550;5.206;2022-09-27T15:01:56;4.60;;;1.40;;
16137;SDS011;8174;43.550;5.206;2022-09-27T15:04:26;1.88;;;1.00;;
16137;SDS011;8174;43.550;5.206;2022-09-27T15:06:55;4.63;;;1.15;;
16137;SDS011;8174;43.550;5.206;2022-09-27T15:09:23;4.30;;;1.25;;
16137;SDS011;8174;43.550;5.206;2022-09-27T15:11:52;5.65;;;1.60;;
16137;SDS011;8174;43.550;5.206;2022-09-27T15:14:22;6.10;;;1.30;;
16137;SDS011;8174;43.550;5.206;2022-09-27T15:16:52;4.20;;;1.20;;
16137;SDS011;8174;43.550;5.206;2022-09-27T15:19:21;2.65;;;1.05;;
16137;SDS011;8174;43.550;5.206;2022-09-27T15:21:51;5.00;;;1.50;;
16137;SDS011;8174;43.550;5.206;2022-09-27T15:24:37;4.35;;;1.33;;
16137;SDS011;8174;43.550;5.206;2022-09-27T15:27:12;2.97;;;1.13;;
16137;SDS011;8174;43.550;5.206;2022-09-27T15:29:46;3.53;;;1.27;;
16137;SDS011;8174;43.550;5.206;2022-09-27T15:32:14;3.25;;;1.20;;
16137;SDS011;8174;43.550;5.206;2022-09-27T15:34:43;4.40;;;1.40;;
16137;SDS011;8174;43.550;5.206;2022-09-27T15:37:22;5.13;;;1.30;;
16137;SDS011;8174;43.550;5.206;2022-09-27T15:39:51;3.95;;;1.20;;
16137;SDS011;8174;43.550;5.206;2022-09-27T15:42:19;3.92;;;1.25;;
16137;SDS011;8174;43.550;5.206;2022-09-27T15:44:49;3.65;;;1.20;;
16137;SDS011;8174;43.550;5.206;2022-09-27T15:52:47;5.30;;;1.60;;
16137;SDS011;8174;43.550;5.206;2022-09-27T15:55:15;2.33;;;1.15;;